createdAt,value
2023-01-03T02:51:37.350Z,96181.00
2023-01-03T03:16:36.803Z,96200.00
2023-01-03T03:17:36.696Z,96198.00
2023-01-03T03:18:36.689Z,96200.00
2023-01-03T03:19:36.649Z,96200.00
2023-01-03T03:20:36.687Z,96202.00
2023-01-03T03:21:36.614Z,96202.00
2023-01-03T03:22:36.594Z,96200.00
2023-01-03T03:23:36.567Z,96200.00
2023-01-03T03:24:36.553Z,96200.00
2023-01-03T03:25:36.533Z,96198.00
2023-01-03T03:26:36.512Z,96202.00
2023-01-03T03:27:36.489Z,96200.00
2023-01-03T03:28:36.488Z,96198.00
2023-01-03T03:29:36.448Z,96200.00
2023-01-03T03:30:36.435Z,96198.00
2023-01-03T03:31:36.463Z,96194.00
2023-01-03T03:32:36.393Z,96196.00
2023-01-03T03:33:36.370Z,96194.00
2023-01-03T03:34:36.376Z,96194.00
2023-01-03T03:35:36.341Z,96194.00
2023-01-03T03:36:36.309Z,96196.00
2023-01-03T03:37:36.282Z,96194.00
2023-01-03T03:38:36.264Z,96196.00
2023-01-03T03:39:36.244Z,96198.00
2023-01-03T03:40:36.221Z,96198.00
2023-01-03T03:41:36.200Z,96196.00
2023-01-03T03:42:36.183Z,96194.00
2023-01-03T03:43:36.157Z,96194.00
2023-01-03T03:44:36.150Z,96194.00
2023-01-03T03:45:36.107Z,96192.00
2023-01-03T03:46:36.112Z,96194.00
2023-01-03T03:47:36.054Z,96194.00
2023-01-03T03:48:36.033Z,96196.00
2023-01-03T03:49:36.013Z,96192.00
2023-01-03T03:50:36.020Z,96192.00
2023-01-03T03:51:35.963Z,96192.00
2023-01-03T03:52:35.942Z,96192.00
2023-01-03T03:53:35.917Z,96190.00
2023-01-03T03:54:35.908Z,96192.00
2023-01-03T03:55:35.876Z,96192.00
2023-01-03T03:56:35.856Z,96192.00
2023-01-03T03:57:35.833Z,96192.00
2023-01-03T03:58:35.812Z,96194.00
2023-01-03T03:59:35.788Z,96192.00
2023-01-03T04:00:35.778Z,96194.00
2023-01-03T04:01:35.818Z,96192.00
2023-01-03T04:02:35.781Z,96192.00
2023-01-03T04:03:35.745Z,96190.00
2023-01-03T04:04:35.695Z,96190.00
2023-01-03T04:05:35.662Z,96192.00
2023-01-03T04:06:35.658Z,96192.00
2023-01-03T04:07:35.611Z,96190.00
2023-01-03T04:08:35.584Z,96190.00
2023-01-03T04:09:35.563Z,96190.00
2023-01-03T04:10:37.935Z,96187.00
2023-01-03T04:11:35.558Z,96189.00
2023-01-03T04:12:35.521Z,96190.00
2023-01-03T04:13:35.492Z,96189.00
2023-01-03T04:14:35.464Z,96189.00
2023-01-03T04:15:35.449Z,96189.00
2023-01-03T04:16:35.504Z,96189.00
2023-01-03T04:17:35.401Z,96189.00
2023-01-03T04:18:35.377Z,96187.00
2023-01-03T04:19:35.360Z,96185.00
2023-01-03T04:20:35.345Z,96185.00
2023-01-03T04:21:35.318Z,96187.00
2023-01-03T04:22:35.467Z,96187.00
2023-01-03T04:23:35.286Z,96189.00
2023-01-03T04:24:35.256Z,96189.00
2023-01-03T04:25:35.234Z,96190.00
2023-01-03T04:26:35.227Z,96192.00
2023-01-03T04:27:35.200Z,96192.00
2023-01-03T04:28:35.173Z,96190.00
2023-01-03T04:29:39.183Z,96189.00
2023-01-03T04:30:35.166Z,96189.00
2023-01-03T04:31:35.219Z,96187.00
2023-01-03T04:32:35.109Z,96189.00
2023-01-03T04:33:35.092Z,96187.00
2023-01-03T04:34:35.068Z,96187.00
2023-01-03T04:35:35.048Z,96187.00
2023-01-03T04:36:35.026Z,96183.00
2023-01-03T04:37:35.000Z,96183.00
2023-01-03T04:38:35.011Z,96183.00
2023-01-03T04:39:34.941Z,96185.00
2023-01-03T04:40:34.979Z,96185.00
2023-01-03T04:41:34.899Z,96183.00
2023-01-03T04:42:34.881Z,96187.00
2023-01-03T04:43:34.852Z,96185.00
2023-01-03T04:44:34.837Z,96183.00
2023-01-03T04:45:34.877Z,96183.00
2023-01-03T04:46:34.779Z,96179.00
2023-01-03T04:47:34.751Z,96179.00
2023-01-03T04:48:34.714Z,96177.00
2023-01-03T04:49:34.697Z,96179.00
2023-01-03T04:50:34.663Z,96177.00
2023-01-03T04:51:34.647Z,96177.00
2023-01-03T04:52:34.606Z,96177.00
2023-01-03T04:53:34.587Z,96175.00
2023-01-03T04:54:34.589Z,96173.00
2023-01-03T04:55:34.538Z,96175.00
2023-01-03T04:56:34.511Z,96177.00
2023-01-03T04:57:34.486Z,96179.00
2023-01-03T04:58:34.468Z,96179.00
2023-01-03T04:59:34.430Z,96179.00
2023-01-03T05:00:34.408Z,96183.00
2023-01-03T05:01:34.534Z,96181.00
2023-01-03T05:02:34.423Z,96183.00
2023-01-03T05:03:34.384Z,96185.00
2023-01-03T05:04:34.371Z,96187.00
2023-01-03T05:05:34.269Z,96187.00
2023-01-03T05:06:34.252Z,96189.00
2023-01-03T05:07:34.222Z,96189.00
2023-01-03T05:08:34.197Z,96189.00
2023-01-03T05:09:34.178Z,96189.00
2023-01-03T05:10:34.158Z,96189.00
2023-01-03T05:11:34.107Z,96190.00
2023-01-03T05:12:34.080Z,96190.00
2023-01-03T05:13:34.056Z,96190.00
2023-01-03T05:14:34.021Z,96190.00
2023-01-03T05:15:33.997Z,96192.00
2023-01-03T05:16:33.987Z,96192.00
2023-01-03T05:17:33.949Z,96190.00
2023-01-03T05:18:33.916Z,96192.00
2023-01-03T05:19:33.914Z,96190.00
2023-01-03T05:20:33.866Z,96190.00
2023-01-03T05:21:33.845Z,96190.00
2023-01-03T05:22:33.819Z,96189.00
2023-01-03T05:23:33.793Z,96189.00
2023-01-03T05:24:33.769Z,96189.00
2023-01-03T05:25:34.738Z,96189.00
2023-01-03T05:26:33.746Z,96187.00
2023-01-03T05:27:33.695Z,96189.00
2023-01-03T05:28:33.788Z,96187.00
2023-01-03T05:29:33.761Z,96187.00
2023-01-03T05:30:33.610Z,96187.00
2023-01-03T05:31:33.696Z,96187.00
2023-01-03T05:32:33.566Z,96189.00
2023-01-03T05:33:33.543Z,96190.00
2023-01-03T05:34:33.502Z,96190.00
2023-01-03T05:35:33.490Z,96192.00
2023-01-03T05:36:33.454Z,96192.00
2023-01-03T05:37:33.424Z,96196.00
2023-01-03T05:38:33.404Z,96196.00
2023-01-03T05:39:33.378Z,96196.00
2023-01-03T05:40:39.292Z,96200.00
2023-01-03T05:41:33.326Z,96198.00
2023-01-03T05:42:33.420Z,96202.00
2023-01-03T05:43:33.262Z,96204.00
2023-01-03T05:44:33.272Z,96206.00
2023-01-03T05:45:33.292Z,96208.00
2023-01-03T05:46:33.279Z,96210.00
2023-01-03T05:47:33.162Z,96212.00
2023-01-03T05:48:33.138Z,96214.00
2023-01-03T05:49:33.106Z,96218.00
2023-01-03T05:50:33.083Z,96216.00
2023-01-03T05:51:33.095Z,96220.00
2023-01-03T05:52:33.024Z,96222.00
2023-01-03T05:53:33.007Z,96220.00
2023-01-03T05:54:32.962Z,96222.00
2023-01-03T05:55:32.942Z,96224.00
2023-01-03T05:56:32.912Z,96224.00
2023-01-03T05:57:35.562Z,96228.00
2023-01-03T05:58:32.880Z,96228.00
2023-01-03T05:59:32.837Z,96228.00
2023-01-03T06:00:32.801Z,96230.00
2023-01-03T06:01:32.871Z,96230.00
2023-01-03T06:02:32.832Z,96232.00
2023-01-03T06:03:32.739Z,96232.00
2023-01-03T06:04:32.731Z,96232.00
2023-01-03T06:05:32.724Z,96234.00
2023-01-03T06:06:32.714Z,96236.00
2023-01-03T06:07:32.641Z,96234.00
2023-01-03T06:08:32.620Z,96236.00
2023-01-03T06:09:32.600Z,96237.00
2023-01-03T06:10:32.567Z,96237.00
2023-01-03T06:11:32.550Z,96241.00
2023-01-03T06:12:32.536Z,96241.00
2023-01-03T06:13:32.489Z,96241.00
2023-01-03T06:14:32.491Z,96243.00
2023-01-03T06:15:32.444Z,96245.00
2023-01-03T06:16:32.477Z,96245.00
2023-01-03T06:17:32.406Z,96241.00
2023-01-03T06:18:32.371Z,96245.00
2023-01-03T06:19:32.347Z,96247.00
2023-01-03T06:20:32.356Z,96245.00
2023-01-03T06:21:32.302Z,96245.00
2023-01-03T06:22:32.292Z,96243.00
2023-01-03T06:23:32.261Z,96245.00
2023-01-03T06:24:32.238Z,96247.00
2023-01-03T06:25:32.229Z,96247.00
2023-01-03T06:26:32.190Z,96251.00
2023-01-03T06:27:32.191Z,96253.00
2023-01-03T06:28:32.146Z,96255.00
2023-01-03T06:29:32.126Z,96253.00
2023-01-03T06:30:32.190Z,96253.00
2023-01-03T06:31:32.163Z,96253.00
2023-01-03T06:32:32.073Z,96253.00
2023-01-03T06:33:32.029Z,96253.00
2023-01-03T06:34:32.016Z,96251.00
2023-01-03T06:35:31.979Z,96249.00
2023-01-03T06:36:31.955Z,96247.00
2023-01-03T06:37:31.956Z,96247.00
2023-01-03T06:38:31.905Z,96247.00
2023-01-03T06:39:31.853Z,96247.00
2023-01-03T06:40:37.177Z,96247.00
2023-01-03T06:41:31.815Z,96251.00
2023-01-03T06:42:31.778Z,96253.00
2023-01-03T06:43:31.739Z,96253.00
2023-01-03T06:44:31.761Z,96255.00
2023-01-03T06:45:31.689Z,96253.00
2023-01-03T06:46:31.814Z,96255.00
2023-01-03T06:47:31.636Z,96255.00
2023-01-03T06:48:31.607Z,96253.00
2023-01-03T06:49:32.258Z,96255.00
2023-01-03T06:50:31.570Z,96253.00
2023-01-03T06:51:31.549Z,96253.00
2023-01-03T06:52:31.523Z,96253.00
2023-01-03T06:53:31.492Z,96251.00
2023-01-03T06:54:31.465Z,96255.00
2023-01-03T06:55:31.465Z,96253.00
2023-01-03T06:56:31.452Z,96257.00
2023-01-03T06:57:31.403Z,96255.00
2023-01-03T06:58:31.367Z,96257.00
2023-01-03T06:59:31.339Z,96257.00
2023-01-03T07:00:31.305Z,96257.00
2023-01-03T07:01:31.533Z,96255.00
2023-01-03T07:02:31.456Z,96257.00
2023-01-03T07:03:31.236Z,96255.00
2023-01-03T07:04:31.209Z,96253.00
2023-01-03T07:05:31.160Z,96257.00
2023-01-03T07:06:31.137Z,96255.00
2023-01-03T07:07:31.118Z,96255.00
2023-01-03T07:08:31.097Z,96255.00
2023-01-03T07:09:31.042Z,96257.00
2023-01-03T07:10:31.028Z,96257.00
2023-01-03T07:11:31.007Z,96259.00
2023-01-03T07:12:30.981Z,96257.00
2023-01-03T07:13:30.998Z,96259.00
2023-01-03T07:14:30.945Z,96257.00
2023-01-03T07:15:30.928Z,96257.00
2023-01-03T07:16:31.058Z,96257.00
2023-01-03T07:17:30.851Z,96259.00
2023-01-03T07:18:30.874Z,96259.00
2023-01-03T07:19:30.805Z,96259.00
2023-01-03T07:20:30.786Z,96259.00
2023-01-03T07:21:30.758Z,96259.00
2023-01-03T07:22:30.747Z,96257.00
2023-01-03T07:23:30.725Z,96255.00
2023-01-03T07:24:30.689Z,96255.00
2023-01-03T07:25:30.669Z,96257.00
2023-01-03T07:26:30.648Z,96261.00
2023-01-03T07:27:30.628Z,96257.00
2023-01-03T07:28:30.618Z,96257.00
2023-01-03T07:29:30.599Z,96259.00
2023-01-03T07:30:30.575Z,96259.00
2023-01-03T07:31:30.686Z,96261.00
2023-01-03T07:32:30.535Z,96261.00
2023-01-03T07:33:30.516Z,96263.00
2023-01-03T07:34:30.544Z,96267.00
2023-01-03T07:35:30.471Z,96265.00
2023-01-03T07:36:30.459Z,96267.00
2023-01-03T07:37:30.458Z,96267.00
2023-01-03T07:38:30.396Z,96267.00
2023-01-03T07:39:30.380Z,96269.00
2023-01-03T07:40:30.361Z,96267.00
2023-01-03T07:41:30.317Z,96269.00
2023-01-03T07:42:30.294Z,96267.00
2023-01-03T07:43:30.269Z,96269.00
2023-01-03T07:44:30.250Z,96267.00
2023-01-03T07:45:30.226Z,96269.00
2023-01-03T07:46:30.256Z,96269.00
2023-01-03T07:47:30.174Z,96269.00
2023-01-03T07:48:30.157Z,96271.00
2023-01-03T07:49:30.129Z,96267.00
2023-01-03T07:50:30.138Z,96275.00
2023-01-03T07:51:30.090Z,96271.00
2023-01-03T07:52:30.049Z,96271.00
2023-01-03T07:53:30.024Z,96273.00
2023-01-03T07:54:30.005Z,96273.00
2023-01-03T07:55:29.966Z,96273.00
2023-01-03T07:56:29.943Z,96275.00
2023-01-03T07:57:29.912Z,96277.00
2023-01-03T07:58:29.883Z,96277.00
2023-01-03T07:59:29.852Z,96277.00
2023-01-03T08:00:29.844Z,96281.00
2023-01-03T08:01:29.873Z,96281.00
2023-01-03T08:02:29.949Z,96284.00
2023-01-03T08:03:29.743Z,96284.00
2023-01-03T08:04:29.884Z,96286.00
2023-01-03T08:05:29.697Z,96288.00
2023-01-03T08:06:29.724Z,96288.00
2023-01-03T08:07:29.633Z,96290.00
2023-01-03T08:08:29.598Z,96290.00
2023-01-03T08:09:29.571Z,96292.00
2023-01-03T08:10:29.544Z,96292.00
2023-01-03T08:11:29.573Z,96294.00
2023-01-03T08:12:29.492Z,96294.00
2023-01-03T08:13:29.474Z,96294.00
2023-01-03T08:14:29.441Z,96296.00
2023-01-03T08:15:29.409Z,96298.00
2023-01-03T08:16:29.423Z,96300.00
2023-01-03T08:17:29.350Z,96304.00
2023-01-03T08:18:29.329Z,96304.00
2023-01-03T08:19:29.295Z,96304.00
2023-01-03T08:20:29.264Z,96304.00
2023-01-03T08:21:29.236Z,96304.00
2023-01-03T08:22:29.242Z,96306.00
2023-01-03T08:23:29.177Z,96306.00
2023-01-03T08:24:29.164Z,96304.00
2023-01-03T08:25:29.127Z,96304.00
2023-01-03T08:26:29.101Z,96306.00
2023-01-03T08:27:29.078Z,96304.00
2023-01-03T08:28:29.056Z,96304.00
2023-01-03T08:29:29.021Z,96306.00
2023-01-03T08:30:28.991Z,96306.00
2023-01-03T08:31:29.104Z,96308.00
2023-01-03T08:32:28.936Z,96308.00
2023-01-03T08:33:28.913Z,96310.00
2023-01-03T08:34:30.070Z,96306.00
2023-01-03T08:35:28.854Z,96304.00
2023-01-03T08:36:28.820Z,96306.00
2023-01-03T08:37:28.861Z,96304.00
2023-01-03T08:38:28.793Z,96304.00
2023-01-03T08:39:28.743Z,96304.00
2023-01-03T08:40:28.729Z,96308.00
2023-01-03T08:41:28.691Z,96304.00
2023-01-03T08:42:28.680Z,96304.00
2023-01-03T08:43:28.653Z,96304.00
2023-01-03T08:44:28.624Z,96304.00
2023-01-03T08:45:28.602Z,96302.00
2023-01-03T08:46:28.689Z,96300.00
2023-01-03T08:47:28.545Z,96304.00
2023-01-03T08:48:28.508Z,96304.00
2023-01-03T08:49:28.488Z,96306.00
2023-01-03T08:50:28.456Z,96306.00
2023-01-03T08:51:28.433Z,96306.00
2023-01-03T08:52:34.591Z,96312.00
2023-01-03T08:53:28.369Z,96312.00
2023-01-03T08:54:28.384Z,96310.00
2023-01-03T08:55:28.315Z,96314.00
2023-01-03T08:56:28.287Z,96314.00
2023-01-03T08:57:28.274Z,96314.00
2023-01-03T08:58:28.235Z,96316.00
2023-01-03T08:59:28.192Z,96320.00
2023-01-03T09:00:28.196Z,96316.00
2023-01-03T09:01:28.351Z,96320.00
2023-01-03T09:02:28.437Z,96322.00
2023-01-03T09:03:28.192Z,96320.00
2023-01-03T09:04:28.044Z,96322.00
2023-01-03T09:05:28.024Z,96322.00
2023-01-03T09:06:27.980Z,96320.00
2023-01-03T09:07:27.949Z,96318.00
2023-01-03T09:08:27.923Z,96320.00
2023-01-03T09:09:27.899Z,96318.00
2023-01-03T09:10:27.920Z,96316.00
2023-01-03T09:11:27.827Z,96318.00
2023-01-03T09:12:27.799Z,96320.00
2023-01-03T09:13:27.772Z,96320.00
2023-01-03T09:14:27.734Z,96320.00
2023-01-03T09:15:27.712Z,96322.00
2023-01-03T09:16:27.747Z,96324.00
2023-01-03T09:17:27.646Z,96324.00
2023-01-03T09:18:27.607Z,96326.00
2023-01-03T09:19:27.587Z,96326.00
2023-01-03T09:20:27.557Z,96328.00
2023-01-03T09:21:27.525Z,96328.00
2023-01-03T09:22:27.507Z,96330.00
2023-01-03T09:23:27.484Z,96334.00
2023-01-03T09:24:27.463Z,96334.00
2023-01-03T09:25:31.670Z,96332.00
2023-01-03T09:26:27.434Z,96332.00
2023-01-03T09:27:27.383Z,96330.00
2023-01-03T09:28:27.361Z,96332.00
2023-01-03T09:29:27.349Z,96332.00
2023-01-03T09:30:27.327Z,96332.00
2023-01-03T09:31:27.368Z,96330.00
2023-01-03T09:32:27.280Z,96332.00
2023-01-03T09:33:27.253Z,96332.00
2023-01-03T09:34:27.239Z,96332.00
2023-01-03T09:35:27.202Z,96332.00
2023-01-03T09:36:27.170Z,96334.00
2023-01-03T09:37:27.148Z,96334.00
2023-01-03T09:38:27.120Z,96338.00
2023-01-03T09:39:27.104Z,96336.00
2023-01-03T09:40:27.103Z,96336.00
2023-01-03T09:41:27.059Z,96336.00
2023-01-03T09:42:27.122Z,96336.00
2023-01-03T09:43:27.006Z,96336.00
2023-01-03T09:44:26.982Z,96338.00
2023-01-03T09:45:26.961Z,96336.00
2023-01-03T09:46:27.028Z,96336.00
2023-01-03T09:47:26.911Z,96334.00
2023-01-03T09:48:26.893Z,96334.00
2023-01-03T09:49:26.860Z,96336.00
2023-01-03T09:50:35.191Z,96334.00
2023-01-03T09:51:30.244Z,96334.00
2023-01-03T09:52:26.800Z,96336.00
2023-01-03T09:53:26.782Z,96336.00
2023-01-03T09:54:26.752Z,96336.00
2023-01-03T09:55:26.725Z,96336.00
2023-01-03T09:56:26.703Z,96336.00
2023-01-03T09:57:28.693Z,96332.00
2023-01-03T09:58:26.709Z,96328.00
2023-01-03T09:59:26.628Z,96332.00
2023-01-03T10:00:26.607Z,96330.00
2023-01-03T10:01:26.789Z,96328.00
2023-01-03T10:02:26.711Z,96328.00
2023-01-03T10:03:26.731Z,96328.00
2023-01-03T10:04:26.517Z,96326.00
2023-01-03T10:05:26.497Z,96328.00
2023-01-03T10:06:26.484Z,96326.00
2023-01-03T10:07:26.448Z,96326.00
2023-01-03T10:08:26.448Z,96328.00
2023-01-03T10:09:26.395Z,96328.00
2023-01-03T10:10:26.376Z,96326.00
2023-01-03T10:11:26.382Z,96326.00
2023-01-03T10:12:26.359Z,96328.00
2023-01-03T10:13:26.301Z,96324.00
2023-01-03T10:14:26.401Z,96328.00
2023-01-03T10:15:26.257Z,96328.00
2023-01-03T10:16:26.354Z,96328.00
2023-01-03T10:17:26.212Z,96332.00
2023-01-03T10:18:26.180Z,96334.00
2023-01-03T10:19:26.149Z,96334.00
2023-01-03T10:20:28.069Z,96334.00
2023-01-03T10:21:26.104Z,96334.00
2023-01-03T10:22:26.078Z,96334.00
2023-01-03T10:23:26.049Z,96334.00
2023-01-03T10:24:26.028Z,96334.00
2023-01-03T10:25:26.012Z,96332.00
2023-01-03T10:26:32.441Z,96334.00
2023-01-03T10:27:25.957Z,96332.00
2023-01-03T10:28:25.938Z,96328.00
2023-01-03T10:29:25.910Z,96326.00
2023-01-03T10:30:25.913Z,96326.00
2023-01-03T10:31:25.893Z,96322.00
2023-01-03T10:32:25.841Z,96318.00
2023-01-03T10:33:25.813Z,96318.00
2023-01-03T10:34:25.793Z,96316.00
2023-01-03T10:35:25.772Z,96316.00
2023-01-03T10:36:25.748Z,96318.00
2023-01-03T10:37:25.720Z,96322.00
2023-01-03T10:38:25.718Z,96320.00
2023-01-03T10:39:25.673Z,96324.00
2023-01-03T10:40:25.654Z,96326.00
2023-01-03T10:41:25.629Z,96328.00
2023-01-03T10:42:25.605Z,96330.00
2023-01-03T10:43:25.569Z,96330.00
2023-01-03T10:44:25.552Z,96328.00
2023-01-03T10:45:25.594Z,96328.00
2023-01-03T10:46:25.619Z,96326.00
2023-01-03T10:47:25.471Z,96326.00
2023-01-03T10:48:25.447Z,96324.00
2023-01-03T10:49:27.884Z,96326.00
2023-01-03T10:50:25.390Z,96328.00
2023-01-03T10:51:25.368Z,96328.00
2023-01-03T10:52:25.342Z,96328.00
2023-01-03T10:53:25.308Z,96324.00
2023-01-03T10:54:25.371Z,96324.00
2023-01-03T10:55:25.261Z,96324.00
2023-01-03T10:56:25.240Z,96320.00
2023-01-03T10:57:25.215Z,96322.00
2023-01-03T10:58:29.226Z,96320.00
2023-01-03T10:59:25.164Z,96314.00
2023-01-03T11:00:25.204Z,96314.00
2023-01-03T11:01:25.202Z,96312.00
2023-01-03T11:02:25.358Z,96318.00
2023-01-03T11:03:25.052Z,96316.00
2023-01-03T11:04:25.007Z,96316.00
2023-01-03T11:05:24.977Z,96316.00
2023-01-03T11:06:24.956Z,96314.00
2023-01-03T11:07:24.916Z,96308.00
2023-01-03T11:08:24.888Z,96308.00
2023-01-03T11:09:24.854Z,96310.00
2023-01-03T11:10:24.831Z,96312.00
2023-01-03T11:11:24.839Z,96310.00
2023-01-03T11:12:24.769Z,96302.00
2023-01-03T11:13:24.737Z,96306.00
2023-01-03T11:14:24.714Z,96306.00
2023-01-03T11:15:24.679Z,96306.00
2023-01-03T11:16:24.701Z,96308.00
2023-01-03T11:17:24.621Z,96308.00
2023-01-03T11:18:24.613Z,96310.00
2023-01-03T11:19:24.558Z,96310.00
2023-01-03T11:20:24.530Z,96304.00
2023-01-03T11:21:24.515Z,96306.00
2023-01-03T11:22:24.477Z,96308.00
2023-01-03T11:23:24.444Z,96306.00
2023-01-03T11:24:24.434Z,96304.00
2023-01-03T11:25:24.435Z,96304.00
2023-01-03T11:26:24.396Z,96304.00
2023-01-03T11:27:24.355Z,96304.00
2023-01-03T11:28:24.348Z,96306.00
2023-01-03T11:29:24.296Z,96308.00
2023-01-03T11:30:24.264Z,96308.00
2023-01-03T11:31:24.283Z,96308.00
2023-01-03T11:32:24.279Z,96310.00
2023-01-03T11:33:29.320Z,96310.00
2023-01-03T11:34:24.181Z,96308.00
2023-01-03T11:35:25.224Z,96308.00
2023-01-03T11:36:24.105Z,96306.00
2023-01-03T11:37:24.073Z,96302.00
2023-01-03T11:38:24.079Z,96302.00
2023-01-03T11:39:27.103Z,96296.00
2023-01-03T11:40:24.002Z,96302.00
2023-01-03T11:41:23.959Z,96298.00
2023-01-03T11:42:23.940Z,96294.00
2023-01-03T11:43:23.917Z,96298.00
2023-01-03T11:44:23.877Z,96292.00
2023-01-03T11:45:23.852Z,96292.00
2023-01-03T11:46:23.891Z,96292.00
2023-01-03T11:47:23.803Z,96292.00
2023-01-03T11:48:23.773Z,96292.00
2023-01-03T11:49:23.762Z,96288.00
2023-01-03T11:50:23.738Z,96288.00
2023-01-03T11:51:23.683Z,96286.00
2023-01-03T11:52:23.657Z,96286.00
2023-01-03T11:53:23.637Z,96284.00
2023-01-03T11:54:23.609Z,96292.00
2023-01-03T11:55:23.593Z,96292.00
2023-01-03T11:56:23.558Z,96290.00
2023-01-03T11:57:23.534Z,96292.00
2023-01-03T11:58:23.516Z,96292.00
2023-01-03T11:59:23.492Z,96290.00
2023-01-03T12:00:23.496Z,96290.00
2023-01-03T12:01:23.501Z,96292.00
2023-01-03T12:02:23.516Z,96292.00
2023-01-03T12:03:23.580Z,96292.00
2023-01-03T12:04:23.430Z,96292.00
2023-01-03T12:05:23.353Z,96292.00
2023-01-03T12:06:28.520Z,96290.00
2023-01-03T12:07:47.554Z,96284.00
2023-01-03T12:08:23.270Z,96286.00
2023-01-03T12:09:23.243Z,96284.00
2023-01-03T12:10:23.233Z,96283.00
2023-01-03T12:11:23.201Z,96283.00
2023-01-03T12:12:23.180Z,96288.00
2023-01-03T12:13:29.148Z,96288.00
2023-01-03T12:14:23.138Z,96292.00
2023-01-03T12:15:23.119Z,96290.00
2023-01-03T12:16:23.132Z,96288.00
2023-01-03T12:17:23.070Z,96286.00
2023-01-03T12:18:23.049Z,96286.00
2023-01-03T12:19:23.079Z,96284.00
2023-01-03T12:20:22.994Z,96286.00
2023-01-03T12:21:22.985Z,96284.00
2023-01-03T12:22:22.963Z,96279.00
2023-01-03T12:23:22.910Z,96277.00
2023-01-03T12:24:22.887Z,96281.00
2023-01-03T12:25:22.863Z,96279.00
2023-01-03T12:26:22.839Z,96279.00
2023-01-03T12:27:22.807Z,96281.00
2023-01-03T12:28:22.784Z,96281.00
2023-01-03T12:29:22.757Z,96279.00
2023-01-03T12:30:22.723Z,96281.00
2023-01-03T12:31:27.819Z,96281.00
2023-01-03T12:32:22.694Z,96279.00
2023-01-03T12:33:22.654Z,96281.00
2023-01-03T12:34:22.674Z,96281.00
2023-01-03T12:35:22.615Z,96283.00
2023-01-03T12:36:22.583Z,96281.00
2023-01-03T12:37:22.565Z,96283.00
2023-01-03T12:38:22.558Z,96284.00
2023-01-03T12:39:24.893Z,96283.00
2023-01-03T12:40:22.530Z,96279.00
2023-01-03T12:41:22.471Z,96284.00
2023-01-03T12:42:22.426Z,96283.00
2023-01-03T12:43:22.407Z,96283.00
2023-01-03T12:44:22.378Z,96283.00
2023-01-03T12:45:22.351Z,96284.00
2023-01-03T12:46:22.375Z,96279.00
2023-01-03T12:47:22.302Z,96281.00
2023-01-03T12:48:22.300Z,96277.00
2023-01-03T12:49:22.256Z,96279.00
2023-01-03T12:50:22.236Z,96283.00
2023-01-03T12:51:22.197Z,96281.00
2023-01-03T12:52:22.174Z,96283.00
2023-01-03T12:53:22.149Z,96281.00
2023-01-03T12:54:22.159Z,96284.00
2023-01-03T12:55:22.094Z,96283.00
2023-01-03T12:56:22.069Z,96281.00
2023-01-03T12:57:22.045Z,96281.00
2023-01-03T12:58:22.046Z,96275.00
2023-01-03T12:59:21.994Z,96277.00
2023-01-03T13:00:21.982Z,96279.00
2023-01-03T13:01:22.177Z,96277.00
2023-01-03T13:02:22.189Z,96279.00
2023-01-03T13:03:21.991Z,96279.00
2023-01-03T13:04:23.903Z,96277.00
2023-01-03T13:05:21.841Z,96284.00
2023-01-03T13:06:21.815Z,96279.00
2023-01-03T13:07:21.771Z,96281.00
2023-01-03T13:08:21.746Z,96283.00
2023-01-03T13:09:21.714Z,96283.00
2023-01-03T13:10:21.738Z,96283.00
2023-01-03T13:11:21.660Z,96281.00
2023-01-03T13:12:21.632Z,96279.00
2023-01-03T13:13:21.604Z,96275.00
2023-01-03T13:14:21.580Z,96275.00
2023-01-03T13:15:21.552Z,96273.00
2023-01-03T13:16:21.650Z,96269.00
2023-01-03T13:17:21.488Z,96275.00
2023-01-03T13:18:21.464Z,96269.00
2023-01-03T13:19:21.437Z,96275.00
2023-01-03T13:20:21.409Z,96279.00
2023-01-03T13:21:21.387Z,96281.00
2023-01-03T13:22:21.626Z,96283.00
2023-01-03T13:23:21.337Z,96284.00
2023-01-03T13:24:21.290Z,96283.00
2023-01-03T13:25:21.284Z,96284.00
2023-01-03T13:26:21.515Z,96283.00
2023-01-03T13:27:21.197Z,96281.00
2023-01-03T13:28:21.203Z,96281.00
2023-01-03T13:29:21.133Z,96283.00
2023-01-03T13:30:21.107Z,96281.00
2023-01-03T13:31:21.189Z,96281.00
2023-01-03T13:32:21.050Z,96283.00
2023-01-03T13:33:21.011Z,96284.00
2023-01-03T13:34:20.980Z,96281.00
2023-01-03T13:35:20.945Z,96283.00
2023-01-03T13:36:20.921Z,96283.00
2023-01-03T13:37:20.919Z,96279.00
2023-01-03T13:38:24.580Z,96279.00
2023-01-03T13:39:20.827Z,96277.00
2023-01-03T13:40:20.799Z,96277.00
2023-01-03T13:41:20.772Z,96275.00
2023-01-03T13:42:20.764Z,96275.00
2023-01-03T13:43:20.720Z,96275.00
2023-01-03T13:44:20.694Z,96277.00
2023-01-03T13:45:20.668Z,96279.00
2023-01-03T13:46:20.667Z,96275.00
2023-01-03T13:47:20.610Z,96277.00
2023-01-03T13:48:20.588Z,96277.00
2023-01-03T13:49:20.561Z,96273.00
2023-01-03T13:50:20.532Z,96273.00
2023-01-03T13:51:20.510Z,96271.00
2023-01-03T13:52:20.485Z,96273.00
2023-01-03T13:53:20.490Z,96273.00
2023-01-03T13:54:20.443Z,96273.00
2023-01-03T13:55:20.424Z,96273.00
2023-01-03T13:56:20.367Z,96273.00
2023-01-03T13:57:20.339Z,96279.00
2023-01-03T13:58:20.339Z,96279.00
2023-01-03T13:59:20.288Z,96281.00
2023-01-03T14:00:20.263Z,96283.00
2023-01-03T14:01:20.428Z,96284.00
2023-01-03T14:02:20.491Z,96284.00
2023-01-03T14:03:20.355Z,96288.00
2023-01-03T14:04:20.143Z,96286.00
2023-01-03T14:05:20.136Z,96290.00
2023-01-03T14:06:20.077Z,96286.00
2023-01-03T14:07:20.047Z,96290.00
2023-01-03T14:08:20.022Z,96290.00
2023-01-03T14:09:19.993Z,96292.00
2023-01-03T14:10:19.961Z,96296.00
2023-01-03T14:11:19.937Z,96296.00
2023-01-03T14:12:19.905Z,96298.00
2023-01-03T14:13:19.867Z,96298.00
2023-01-03T14:14:19.868Z,96302.00
2023-01-03T14:15:25.753Z,96304.00
2023-01-03T14:16:19.841Z,96308.00
2023-01-03T14:17:19.760Z,96308.00
2023-01-03T14:18:19.722Z,96308.00
2023-01-03T14:19:19.708Z,96308.00
2023-01-03T14:20:19.663Z,96310.00
2023-01-03T14:21:25.212Z,96310.00
2023-01-03T14:22:32.189Z,96310.00
2023-01-03T14:24:19.547Z,96316.00
2023-01-03T14:25:19.516Z,96318.00
2023-01-03T14:26:19.520Z,96318.00
2023-01-03T14:27:19.493Z,96316.00
2023-01-03T14:28:19.432Z,96316.00
2023-01-03T14:29:19.417Z,96318.00
2023-01-03T14:30:19.396Z,96318.00
2023-01-03T14:31:19.473Z,96318.00
2023-01-03T14:32:19.345Z,96318.00
2023-01-03T14:33:19.297Z,96318.00
2023-01-03T14:34:19.274Z,96318.00
2023-01-03T14:35:19.255Z,96322.00
2023-01-03T14:36:19.225Z,96322.00
2023-01-03T14:37:19.206Z,96324.00
2023-01-03T14:38:19.194Z,96328.00
2023-01-03T14:39:19.145Z,96328.00
2023-01-03T14:40:19.119Z,96326.00
2023-01-03T14:41:19.101Z,96328.00
2023-01-03T14:42:19.076Z,96328.00
2023-01-03T14:43:21.535Z,96330.00
2023-01-03T14:44:19.033Z,96326.00
2023-01-03T14:45:18.999Z,96328.00
2023-01-03T14:46:19.081Z,96328.00
2023-01-03T14:47:19.035Z,96326.00
2023-01-03T14:48:18.911Z,96330.00
2023-01-03T14:49:18.883Z,96330.00
2023-01-03T14:50:18.852Z,96328.00
2023-01-03T14:51:18.830Z,96326.00
2023-01-03T14:52:18.843Z,96326.00
2023-01-03T14:53:18.770Z,96324.00
2023-01-03T14:54:18.784Z,96322.00
2023-01-03T14:55:18.724Z,96326.00
2023-01-03T14:56:18.713Z,96326.00
2023-01-03T14:57:18.690Z,96324.00
2023-01-03T14:58:18.636Z,96322.00
2023-01-03T14:59:18.610Z,96326.00
2023-01-03T15:00:18.591Z,96326.00